createdAt,value
2018-12-30T04:18:48.392Z,0.00
2018-12-30T04:20:00.583Z,0.00
2018-12-30T04:20:58.369Z,0.00
2018-12-30T04:21:57.059Z,0.00
2018-12-30T04:22:49.135Z,0.00
2018-12-30T04:23:49.717Z,0.00
2018-12-30T04:27:23.524Z,0.00
2018-12-30T04:27:53.460Z,0.00
2018-12-30T04:30:44.325Z,0.00
2018-12-30T04:33:34.788Z,0.00
2018-12-30T04:42:55.188Z,0.00
2018-12-30T04:43:43.418Z,0.00
2018-12-30T04:44:44.842Z,0.00
2018-12-30T04:45:43.073Z,0.00
2018-12-30T04:46:54.337Z,0.00
2018-12-30T04:47:45.976Z,0.00
2018-12-30T04:48:45.725Z,0.00
2018-12-30T04:49:48.985Z,0.00
2018-12-30T04:52:29.728Z,0.00
2018-12-30T04:53:30.722Z,0.00
2018-12-30T04:54:29.381Z,0.00
2018-12-30T04:55:29.503Z,0.00
2018-12-30T04:56:29.546Z,0.00
2018-12-30T04:57:29.654Z,0.00
2018-12-30T04:58:31.209Z,0.00
2018-12-30T04:59:30.542Z,0.00
2018-12-30T05:00:30.951Z,0.00
2018-12-30T05:01:31.455Z,0.00
2018-12-30T05:02:30.666Z,0.00
2018-12-30T05:03:30.695Z,0.00
2018-12-30T05:04:29.147Z,0.00
2018-12-30T05:05:29.084Z,0.00
2018-12-30T05:06:29.416Z,0.00
2018-12-30T05:07:29.480Z,0.00
2018-12-30T05:08:29.485Z,0.00
2018-12-30T05:09:30.616Z,0.00
2018-12-30T05:10:30.001Z,0.00
2018-12-30T05:11:30.355Z,0.00
2018-12-30T05:12:30.631Z,0.00
2018-12-30T05:32:14.158Z,0.00
2018-12-30T05:33:20.914Z,0.00
2018-12-30T05:36:33.377Z,0.00
2018-12-30T05:37:38.758Z,0.00
2018-12-30T05:38:32.989Z,0.00
2018-12-30T05:40:07.830Z,0.00
2018-12-30T05:40:34.372Z,0.00
2018-12-30T05:45:51.723Z,0.00
2018-12-30T06:21:29.933Z,0.00
2018-12-30T06:34:22.318Z,0.00
2018-12-30T06:35:12.856Z,0.00
2018-12-30T06:36:12.885Z,0.00
2018-12-30T06:37:12.813Z,0.00
2018-12-30T06:38:14.942Z,0.00
2018-12-30T06:39:13.159Z,0.00
2018-12-30T06:55:44.671Z,4.00
2018-12-30T06:56:44.721Z,4.00
2018-12-30T06:58:43.357Z,4.00
2018-12-30T06:59:42.974Z,8.00
2018-12-30T07:00:43.134Z,4.00
2018-12-30T07:01:43.353Z,8.00
2018-12-30T07:02:43.532Z,8.00
2018-12-30T07:03:46.406Z,12.00
2018-12-30T07:04:43.719Z,12.00
2018-12-30T07:05:43.840Z,12.00
2018-12-30T07:06:44.128Z,16.00
2018-12-30T07:07:44.236Z,16.00
2018-12-30T07:08:44.380Z,16.00
2018-12-30T07:09:44.545Z,20.00
2018-12-30T07:10:44.732Z,24.00
2018-12-30T07:11:44.844Z,24.00
2018-12-30T07:12:45.056Z,28.00
2018-12-30T07:13:45.153Z,32.00
2018-12-30T07:14:45.454Z,36.00
2018-12-30T07:15:46.504Z,40.00
2018-12-30T07:16:45.733Z,44.00
2018-12-30T07:17:45.910Z,48.00
2018-12-30T07:18:46.126Z,48.00
2018-12-30T07:19:46.144Z,48.00
2018-12-30T07:20:46.309Z,60.00
2018-12-30T07:21:46.581Z,60.00
2018-12-30T07:22:46.755Z,60.00
2018-12-30T07:23:46.884Z,68.00
2018-12-30T07:24:46.965Z,76.00
2018-12-30T07:25:47.283Z,88.00
2018-12-30T07:26:47.448Z,96.00
2018-12-30T07:27:47.548Z,92.00
2018-12-30T07:28:47.725Z,92.00
2018-12-30T07:29:47.896Z,96.00
2018-12-30T07:30:48.051Z,104.00
2018-12-30T07:31:48.197Z,112.00
2018-12-30T07:32:48.681Z,116.00
2018-12-30T07:33:48.746Z,120.00
2018-12-30T07:34:48.747Z,136.00
2018-12-30T07:35:48.831Z,136.00
2018-12-30T07:36:49.542Z,144.00
2018-12-30T07:37:49.263Z,144.00
2018-12-30T07:38:49.446Z,148.00
2018-12-30T07:39:49.780Z,160.00
2018-12-30T07:40:50.104Z,196.00
2018-12-30T07:41:50.030Z,196.00
2018-12-30T07:42:50.174Z,184.00
2018-12-30T07:43:50.322Z,184.00
2018-12-30T07:44:50.503Z,216.00
2018-12-30T07:45:50.797Z,228.00
2018-12-30T07:46:50.826Z,212.00
2018-12-30T07:47:51.256Z,200.00
2018-12-30T07:48:51.253Z,200.00
2018-12-30T07:50:54.564Z,236.00
2018-12-30T07:51:51.728Z,244.00
2018-12-30T07:52:51.812Z,264.00
2018-12-30T07:53:52.051Z,256.00
2018-12-30T07:54:51.933Z,236.00
2018-12-30T07:55:52.486Z,220.00
2018-12-30T07:56:52.609Z,208.00
2018-12-30T07:57:52.556Z,208.00
2018-12-30T07:58:53.794Z,220.00
2018-12-30T07:59:53.505Z,244.00
2018-12-30T08:00:53.150Z,276.00
2018-12-30T08:01:53.288Z,284.00
2018-12-30T08:02:53.749Z,308.00
2018-12-30T08:03:53.803Z,280.00
2018-12-30T08:04:53.945Z,280.00
2018-12-30T08:05:54.058Z,304.00
2018-12-30T08:06:55.187Z,352.00
2018-12-30T08:07:54.419Z,392.00
2018-12-30T08:08:54.651Z,408.00
2018-12-30T08:09:54.812Z,424.00
2018-12-30T08:10:54.915Z,396.00
2018-12-30T08:11:55.181Z,440.00
2018-12-30T08:12:55.351Z,564.00
2018-12-30T08:13:55.591Z,676.00
2018-12-30T08:14:55.621Z,652.00
2018-12-30T08:15:56.117Z,608.00
2018-12-30T08:16:56.022Z,536.00
2018-12-30T08:17:56.080Z,476.00
2018-12-30T08:18:58.208Z,472.00
2018-12-30T08:19:56.608Z,416.00
2018-12-30T08:20:56.908Z,460.00
2018-12-30T08:21:56.948Z,536.00
2018-12-30T08:22:57.029Z,576.00
2018-12-30T08:23:57.404Z,608.00
2018-12-30T08:24:58.001Z,616.00
2018-12-30T08:25:57.746Z,596.00
2018-12-30T08:26:57.674Z,536.00
2018-12-30T08:27:57.984Z,520.00
2018-12-30T08:28:58.050Z,488.00
2018-12-30T08:29:58.196Z,480.00
2018-12-30T08:30:58.325Z,496.00
2018-12-30T08:31:59.496Z,464.00
2018-12-30T08:32:58.746Z,460.00
2018-12-30T08:33:58.774Z,460.00
2018-12-30T08:34:58.946Z,504.00
2018-12-30T08:35:59.114Z,516.00
2018-12-30T08:36:59.262Z,624.00
2018-12-30T08:37:59.380Z,704.00
2018-12-30T08:38:59.513Z,672.00
2018-12-30T08:40:00.435Z,704.00
2018-12-30T08:40:59.808Z,816.00
2018-12-30T08:42:00.988Z,1028.00
2018-12-30T08:43:00.197Z,1152.00
2018-12-30T08:44:00.361Z,1084.00
2018-12-30T08:45:00.588Z,1112.00
2018-12-30T08:48:39.239Z,1204.00
2018-12-30T08:50:55.005Z,1124.00
2018-12-30T09:06:36.850Z,1708.00
2018-12-30T09:07:40.922Z,1364.00
2018-12-30T09:08:37.284Z,1112.00
2018-12-30T09:09:50.574Z,924.00
2018-12-30T09:10:39.238Z,924.00
2018-12-30T09:11:42.682Z,932.00
2018-12-30T09:12:38.997Z,1152.00
2018-12-30T09:13:43.633Z,1392.00
2018-12-30T09:15:42.010Z,1232.00
2018-12-30T09:18:19.385Z,1324.00
2018-12-30T09:19:18.844Z,1112.00
2018-12-30T09:20:19.506Z,964.00
2018-12-30T09:21:21.062Z,968.00
2018-12-30T09:22:20.723Z,1000.00
2018-12-30T09:23:19.802Z,1300.00
2018-12-30T09:24:23.562Z,1244.00
2018-12-30T09:25:27.846Z,1132.00
2018-12-30T09:26:39.353Z,1072.00
2018-12-30T09:27:25.910Z,1076.00
2018-12-30T09:28:26.928Z,960.00
2018-12-30T09:29:21.534Z,844.00
2018-12-30T09:30:21.911Z,1012.00
2018-12-30T09:32:19.610Z,1532.00
2018-12-30T09:33:19.461Z,1360.00
2018-12-30T09:34:19.587Z,1452.00
2018-12-30T09:35:19.673Z,1444.00
2018-12-30T09:36:19.545Z,1432.00
2018-12-30T09:37:19.573Z,1500.00
2018-12-30T09:38:19.865Z,1712.00
2018-12-30T09:39:20.173Z,1708.00
2018-12-30T09:40:20.238Z,1620.00
2018-12-30T09:41:20.320Z,1712.00
2018-12-30T09:42:20.653Z,1524.00
2018-12-30T09:43:20.503Z,1416.00
2018-12-30T09:44:20.798Z,1612.00
2018-12-30T09:45:20.775Z,1664.00
2018-12-30T09:46:20.980Z,1592.00
2018-12-30T09:47:21.091Z,1580.00
2018-12-30T09:48:21.315Z,1604.00
2018-12-30T09:49:21.523Z,1624.00
2018-12-30T09:50:21.586Z,1724.00
2018-12-30T09:51:21.885Z,1764.00
2018-12-30T09:52:22.151Z,1636.00
2018-12-30T09:53:22.185Z,1604.00
2018-12-30T09:54:22.403Z,1632.00
2018-12-30T09:55:22.765Z,1820.00
2018-12-30T09:56:22.807Z,2060.00
2018-12-30T09:57:23.028Z,1924.00
2018-12-30T09:58:23.222Z,1768.00
2018-12-30T09:59:23.424Z,2168.00
2018-12-30T10:00:23.570Z,2568.00
2018-12-30T10:01:23.573Z,2632.00
2018-12-30T10:02:23.719Z,2644.00
2018-12-30T10:03:23.955Z,2716.00
2018-12-30T10:04:25.068Z,2900.00
2018-12-30T10:05:24.973Z,3284.00
2018-12-30T10:06:25.844Z,3440.00
2018-12-30T10:07:25.056Z,2864.00
2018-12-30T10:08:25.103Z,2472.00
2018-12-30T10:09:25.388Z,2524.00
2018-12-30T10:10:25.643Z,2640.00
2018-12-30T10:11:25.494Z,2688.00
2018-12-30T10:12:25.984Z,2528.00
2018-12-30T10:13:25.717Z,2060.00
2018-12-30T10:14:26.780Z,1904.00
2018-12-30T10:15:26.034Z,2168.00
2018-12-30T10:16:26.752Z,2420.00
2018-12-30T10:17:26.399Z,2612.00
2018-12-30T10:18:26.629Z,2700.00
2018-12-30T10:19:26.709Z,2684.00
2018-12-30T10:20:26.881Z,2592.00
2018-12-30T10:21:27.708Z,2608.00
2018-12-30T10:22:27.399Z,2892.00
2018-12-30T10:23:27.556Z,3220.00
2018-12-30T10:24:27.600Z,3164.00
2018-12-30T10:25:27.854Z,2932.00
2018-12-30T10:26:28.031Z,2684.00
2018-12-30T10:27:28.168Z,2632.00
2018-12-30T10:28:29.274Z,2872.00
2018-12-30T10:29:28.376Z,3404.00
2018-12-30T10:30:28.674Z,3968.00
2018-12-30T10:31:28.797Z,3776.00
2018-12-30T10:32:28.945Z,3680.00
2018-12-30T10:33:29.078Z,3752.00
2018-12-30T10:34:30.357Z,3444.00
2018-12-30T10:35:29.367Z,2996.00
2018-12-30T10:36:30.111Z,2988.00
2018-12-30T10:37:32.196Z,3148.00
2018-12-30T10:38:30.351Z,3688.00
2018-12-30T10:39:30.258Z,3700.00
2018-12-30T10:40:30.872Z,3296.00
2018-12-30T10:41:31.422Z,3436.00
2018-12-30T10:42:31.050Z,2696.00
2018-12-30T10:43:30.674Z,2288.00
2018-12-30T10:44:43.924Z,2172.00
2018-12-30T10:45:37.972Z,2536.00
2018-12-30T10:46:40.737Z,3252.00
2018-12-30T10:47:40.912Z,3764.00
2018-12-30T10:48:47.860Z,3412.00
2018-12-30T10:52:49.834Z,2320.00
2018-12-30T10:54:00.400Z,2292.00
2018-12-30T10:54:50.571Z,2784.00
2018-12-30T10:55:50.993Z,3376.00
2018-12-30T10:56:49.560Z,4200.00
2018-12-30T10:57:49.585Z,4484.00
2018-12-30T10:58:48.970Z,4492.00
2018-12-30T10:59:48.858Z,4648.00
2018-12-30T11:00:49.100Z,5024.00
2018-12-30T11:01:49.388Z,4428.00
2018-12-30T11:02:49.492Z,3860.00
2018-12-30T11:03:49.532Z,3264.00
2018-12-30T11:04:49.642Z,2896.00
2018-12-30T11:05:50.195Z,3440.00
2018-12-30T11:06:50.300Z,3436.00
2018-12-30T11:07:50.338Z,3792.00
2018-12-30T11:08:50.738Z,3924.00
2018-12-30T11:09:50.541Z,4168.00
2018-12-30T11:10:51.230Z,3808.00
2018-12-30T11:11:50.864Z,4400.00
2018-12-30T11:12:51.259Z,5872.00
2018-12-30T11:13:51.265Z,5448.00
2018-12-30T11:14:52.042Z,4412.00
2018-12-30T11:15:51.404Z,3752.00
2018-12-30T11:16:52.298Z,3500.00
2018-12-30T11:17:52.287Z,3636.00
2018-12-30T11:18:53.207Z,3868.00
2018-12-30T11:19:51.984Z,4284.00
2018-12-30T11:20:52.270Z,4932.00
2018-12-30T11:21:52.426Z,5844.00
2018-12-30T11:22:52.877Z,6868.00
2018-12-30T11:23:52.738Z,10428.00
2018-12-30T11:24:53.265Z,6748.00
2018-12-30T11:25:54.428Z,6208.00
2018-12-30T11:26:53.795Z,6264.00
2018-12-30T11:27:53.170Z,7188.00
2018-12-30T11:28:53.395Z,8328.00
2018-12-30T11:29:53.455Z,9584.00
2018-12-30T11:30:53.705Z,10372.00
2018-12-30T11:31:53.896Z,11612.00
2018-12-30T11:32:54.028Z,7704.00
2018-12-30T11:33:54.190Z,6772.00
2018-12-30T11:34:54.338Z,5900.00
2018-12-30T11:35:55.858Z,5976.00
2018-12-30T11:36:55.275Z,5480.00
2018-12-30T11:37:54.818Z,5500.00
2018-12-30T11:38:54.953Z,5112.00
2018-12-30T11:39:55.113Z,4896.00
2018-12-30T11:40:55.375Z,5372.00
2018-12-30T11:41:55.390Z,5800.00
2018-12-30T11:42:55.521Z,7124.00
2018-12-30T11:43:55.721Z,6084.00
2018-12-30T11:44:55.909Z,4756.00
2018-12-30T11:45:56.191Z,3660.00
2018-12-30T11:46:56.273Z,4008.00
2018-12-30T11:47:56.433Z,5284.00
2018-12-30T11:48:56.574Z,5436.00
2018-12-30T11:49:56.780Z,4892.00
2018-12-30T11:50:56.894Z,4904.00
2018-12-30T11:51:57.089Z,5496.00
2018-12-30T11:52:57.287Z,7000.00
2018-12-30T11:53:57.449Z,8188.00
2018-12-30T11:54:57.617Z,9552.00
2018-12-30T11:55:57.759Z,9604.00
2018-12-30T11:56:58.270Z,11996.00
2018-12-30T11:57:58.084Z,34464.00
2018-12-30T12:00:32.762Z,16896.00
2018-12-30T12:01:32.420Z,14676.00
2018-12-30T12:02:31.693Z,14272.00
2018-12-30T12:03:31.845Z,16416.00
2018-12-30T12:04:32.036Z,10340.00
2018-12-30T12:05:32.151Z,8148.00
2018-12-30T12:06:32.959Z,7128.00
2018-12-30T12:07:32.584Z,5900.00
2018-12-30T12:08:32.747Z,8324.00
2018-12-30T12:09:32.875Z,6828.00
2018-12-30T12:10:33.084Z,6808.00
2018-12-30T12:11:33.199Z,5844.00
2018-12-30T12:12:35.569Z,5444.00
2018-12-30T12:13:33.557Z,6348.00
2018-12-30T12:14:33.734Z,7016.00
2018-12-30T12:15:33.856Z,7828.00
2018-12-30T12:16:34.045Z,8976.00
2018-12-30T12:17:34.168Z,8812.00
2018-12-30T12:18:34.422Z,6936.00
2018-12-30T12:19:34.518Z,6104.00
2018-12-30T12:20:34.722Z,6620.00
2018-12-30T12:21:35.283Z,7704.00
2018-12-30T12:22:37.693Z,8580.00
2018-12-30T12:23:35.257Z,8372.00
2018-12-30T12:24:35.676Z,9428.00
2018-12-30T12:25:36.528Z,13316.00
2018-12-30T12:26:35.806Z,15280.00
2018-12-30T12:27:36.461Z,10588.00
2018-12-30T12:28:36.114Z,9708.00
2018-12-30T12:29:36.235Z,10112.00
2018-12-30T12:30:36.446Z,11060.00
2018-12-30T12:31:36.489Z,10968.00
2018-12-30T12:34:21.368Z,11328.00
2018-12-30T12:35:22.605Z,13560.00
2018-12-30T12:36:20.069Z,17632.00
2018-12-30T12:37:20.079Z,15840.00
2018-12-30T12:38:20.359Z,20480.00
2018-12-30T12:39:20.843Z,18912.00
2018-12-30T12:40:31.398Z,15092.00
2018-12-30T12:41:26.929Z,17952.00
2018-12-30T12:42:23.709Z,16416.00
2018-12-30T12:49:18.680Z,8588.00
2018-12-30T12:57:49.222Z,6192.00
2018-12-30T12:58:49.154Z,5680.00
2018-12-30T13:01:46.039Z,5584.00
2018-12-30T13:02:36.016Z,6172.00
2018-12-30T13:03:36.241Z,7068.00
2018-12-30T13:04:37.034Z,6284.00
2018-12-30T13:05:36.691Z,5952.00
2018-12-30T13:06:35.410Z,5996.00
2018-12-30T13:07:36.142Z,5912.00
2018-12-30T13:08:35.104Z,6328.00
2018-12-30T13:09:35.630Z,6260.00
2018-12-30T13:10:37.534Z,6432.00
2018-12-30T13:11:35.946Z,7236.00
2018-12-30T13:12:36.305Z,6668.00
2018-12-30T13:13:36.221Z,5816.00
2018-12-30T13:14:36.537Z,5012.00
2018-12-30T13:15:36.633Z,4436.00
2018-12-30T13:16:36.715Z,4260.00
2018-12-30T13:17:36.753Z,4352.00
2018-12-30T13:18:37.044Z,4400.00
2018-12-30T13:19:37.156Z,4388.00
2018-12-30T13:20:38.232Z,4160.00
2018-12-30T13:21:37.647Z,3752.00
2018-12-30T13:22:37.510Z,3164.00
2018-12-30T13:23:38.092Z,2848.00
2018-12-30T13:24:40.036Z,2516.00
2018-12-30T13:25:38.299Z,2356.00
2018-12-30T13:26:38.392Z,2456.00
2018-12-30T13:27:39.314Z,2580.00
2018-12-30T13:28:39.665Z,2456.00
2018-12-30T13:29:38.887Z,2416.00
2018-12-30T13:30:39.329Z,2408.00
2018-12-30T13:31:39.150Z,2348.00
2018-12-30T13:32:40.948Z,2360.00
2018-12-30T13:33:39.196Z,2284.00
2018-12-30T13:34:39.446Z,2152.00
2018-12-30T13:35:43.277Z,1920.00
2018-12-30T13:36:40.343Z,1812.00
2018-12-30T13:37:40.045Z,1764.00
2018-12-30T13:38:40.446Z,1812.00
2018-12-30T13:39:41.973Z,2164.00
2018-12-30T13:40:40.451Z,2684.00
2018-12-30T13:41:40.543Z,3304.00
2018-12-30T13:42:41.123Z,3688.00
2018-12-30T13:43:41.209Z,3672.00
2018-12-30T13:44:41.203Z,3120.00
2018-12-30T13:45:41.408Z,2472.00
2018-12-30T13:46:41.524Z,1956.00
2018-12-30T13:49:26.340Z,1596.00
2018-12-30T13:50:26.452Z,1800.00
2018-12-30T13:51:53.517Z,2008.00
2018-12-30T13:52:31.554Z,1972.00
2018-12-30T13:53:25.405Z,1720.00
2018-12-30T13:54:25.139Z,1532.00
2018-12-30T13:55:25.648Z,1576.00
2018-12-30T13:56:58.414Z,1792.00
2018-12-30T14:00:17.573Z,1692.00
2018-12-30T14:01:15.316Z,1664.00
2018-12-30T14:02:20.006Z,1716.00
2018-12-30T14:05:15.748Z,1624.00
2018-12-30T14:06:16.551Z,1600.00
2018-12-30T14:07:15.890Z,1504.00
2018-12-30T14:08:14.515Z,1320.00
2018-12-30T14:09:14.174Z,1148.00
2018-12-30T14:10:14.316Z,1036.00
2018-12-30T14:11:14.454Z,1032.00
2018-12-30T14:12:14.640Z,1088.00
2018-12-30T14:13:14.749Z,1120.00
2018-12-30T14:14:14.910Z,1108.00
2018-12-30T14:15:15.191Z,1080.00
2018-12-30T14:16:15.295Z,1024.00
2018-12-30T14:17:15.439Z,1016.00
2018-12-30T14:18:15.608Z,1136.00
2018-12-30T14:19:15.783Z,1272.00
2018-12-30T14:20:15.911Z,1280.00
2018-12-30T14:21:16.134Z,1316.00
2018-12-30T14:22:16.357Z,1344.00
2018-12-30T14:23:16.479Z,1392.00
2018-12-30T14:24:16.599Z,1480.00
2018-12-30T14:25:16.742Z,1576.00
2018-12-30T14:26:16.952Z,1672.00
2018-12-30T14:27:17.707Z,1904.00
2018-12-30T14:28:18.129Z,2012.00
2018-12-30T14:29:17.357Z,1776.00
2018-12-30T14:30:17.505Z,1608.00
2018-12-30T14:31:17.743Z,1696.00
2018-12-30T14:32:17.943Z,1864.00
2018-12-30T14:33:18.024Z,1928.00
2018-12-30T14:34:19.121Z,1980.00
2018-12-30T14:35:18.357Z,1948.00
2018-12-30T14:36:18.665Z,1860.00
2018-12-30T14:37:18.948Z,1704.00
2018-12-30T14:38:19.030Z,1508.00
2018-12-30T14:39:19.189Z,1376.00
2018-12-30T14:40:19.338Z,1320.00
2018-12-30T14:41:19.455Z,1208.00
2018-12-30T14:42:20.200Z,1076.00
2018-12-30T14:43:19.830Z,988.00
2018-12-30T14:44:20.058Z,940.00
2018-12-30T14:45:20.813Z,904.00
2018-12-30T14:46:20.398Z,852.00
2018-12-30T14:47:20.511Z,800.00
2018-12-30T14:48:20.733Z,736.00
2018-12-30T14:49:20.955Z,696.00
2018-12-30T14:50:21.182Z,700.00
2018-12-30T14:51:21.242Z,688.00
2018-12-30T14:52:21.389Z,612.00
2018-12-30T14:53:21.640Z,528.00
2018-12-30T14:54:21.758Z,436.00
2018-12-30T14:55:22.013Z,364.00
2018-12-30T14:56:22.146Z,316.00
2018-12-30T14:57:22.297Z,292.00
2018-12-30T14:58:23.212Z,280.00
2018-12-30T14:59:22.741Z,276.00
2018-12-30T15:00:22.809Z,272.00
2018-12-30T17:46:27.998Z,0.00
2018-12-30T17:47:35.192Z,0.00
2018-12-30T17:48:22.761Z,0.00
2018-12-30T17:49:25.698Z,0.00
2018-12-30T17:50:24.679Z,0.00
2018-12-30T17:51:25.178Z,0.00
2018-12-30T17:52:23.360Z,0.00
2018-12-30T17:53:23.345Z,0.00
2018-12-30T17:54:22.050Z,0.00
2018-12-30T17:55:23.433Z,0.00
2018-12-30T17:56:22.222Z,0.00
2018-12-30T17:57:24.350Z,0.00
2018-12-30T17:58:24.074Z,0.00
2018-12-30T18:02:04.314Z,0.00
2018-12-30T18:03:04.467Z,0.00
2018-12-30T18:04:05.866Z,0.00
2018-12-30T18:05:06.531Z,0.00
2018-12-30T18:06:05.380Z,0.00
2018-12-30T18:07:05.562Z,0.00
2018-12-30T18:08:05.040Z,0.00
2018-12-30T18:09:05.634Z,0.00
2018-12-30T18:10:08.186Z,0.00
2018-12-30T18:12:04.448Z,0.00
2018-12-30T18:13:05.369Z,0.00
2018-12-30T18:14:06.586Z,0.00
2018-12-30T18:19:43.152Z,0.00
2018-12-30T18:21:49.698Z,0.00
2018-12-30T18:22:49.606Z,0.00
2018-12-30T18:23:40.117Z,0.00
2018-12-30T18:24:40.753Z,0.00
2018-12-30T18:25:49.011Z,0.00
2018-12-30T18:26:39.112Z,0.00
2018-12-30T18:30:14.132Z,0.00
2018-12-30T18:31:15.456Z,0.00
2018-12-30T18:32:14.318Z,0.00
2018-12-30T18:35:59.979Z,0.00
2018-12-30T18:37:03.473Z,0.00
2018-12-30T18:38:00.752Z,0.00
2018-12-30T18:39:00.601Z,0.00
2018-12-30T18:40:08.388Z,0.00
2018-12-30T18:41:00.528Z,0.00
2018-12-30T18:43:49.863Z,0.00
2018-12-30T18:44:50.967Z,0.00
2018-12-30T18:45:50.088Z,0.00
2018-12-30T18:46:55.964Z,0.00
2018-12-30T18:47:50.253Z,0.00
2018-12-30T18:48:51.447Z,0.00
2018-12-30T18:51:08.184Z,0.00
2018-12-30T18:51:59.907Z,0.00
2018-12-30T18:53:53.585Z,0.00
2018-12-30T18:54:54.508Z,0.00
2018-12-30T18:55:52.387Z,0.00
2018-12-30T18:56:53.000Z,0.00
2018-12-30T18:58:56.371Z,0.00
2018-12-30T18:59:52.564Z,0.00
2018-12-30T19:00:53.014Z,0.00
2018-12-30T19:01:53.423Z,0.00
2018-12-30T19:02:54.358Z,0.00
2018-12-30T19:06:16.958Z,0.00
2018-12-30T19:07:19.747Z,0.00
2018-12-30T19:08:16.752Z,0.00
2018-12-30T19:09:14.859Z,0.00
2018-12-30T19:10:22.819Z,0.00
2018-12-30T19:11:15.352Z,0.00
2018-12-30T19:12:15.769Z,0.00
2018-12-30T19:13:15.555Z,0.00
2018-12-30T19:14:19.009Z,0.00
2018-12-30T19:15:16.847Z,0.00
2018-12-30T19:16:20.166Z,0.00
2018-12-30T19:17:16.531Z,0.00
2018-12-30T19:18:17.059Z,0.00
2018-12-30T19:20:17.217Z,0.00
2018-12-30T19:21:17.552Z,0.00
2018-12-30T19:22:17.320Z,0.00
2018-12-30T19:23:17.386Z,0.00
2018-12-30T19:24:17.814Z,0.00
2018-12-30T19:25:17.915Z,0.00
2018-12-30T19:26:17.734Z,0.00
2018-12-30T19:27:18.807Z,0.00
2018-12-30T19:28:20.552Z,0.00
2018-12-30T19:29:18.233Z,0.00
2018-12-30T19:30:17.554Z,0.00
2018-12-30T19:31:16.488Z,0.00
2018-12-30T19:36:15.323Z,0.00
2018-12-30T19:48:41.887Z,0.00
2018-12-30T19:49:27.668Z,0.00
2018-12-30T19:50:29.476Z,0.00
2018-12-30T21:04:59.583Z,0.00
2018-12-30T22:05:56.072Z,0.00
2018-12-30T22:08:40.982Z,0.00
